createdAt,value
2022-10-24T00:01:24.265Z,2.23
2022-10-24T00:03:52.396Z,0.90
2022-10-24T00:06:21.747Z,1.17
2022-10-24T00:08:53.679Z,1.50
2022-10-24T00:11:24.246Z,1.73
2022-10-24T00:13:52.723Z,1.97
2022-10-24T00:16:20.983Z,1.03
2022-10-24T00:18:49.008Z,1.53
2022-10-24T00:21:17.514Z,2.47
2022-10-24T00:23:45.193Z,2.53
2022-10-24T00:26:15.721Z,1.67
2022-10-24T00:28:44.441Z,1.63
2022-10-24T00:31:15.594Z,1.77
2022-10-24T00:33:44.182Z,1.23
2022-10-24T00:36:14.385Z,1.63
2022-10-24T00:38:42.518Z,1.33
2022-10-24T00:41:15.282Z,3.23
2022-10-24T00:43:44.317Z,1.20
2022-10-24T00:46:13.250Z,1.73
2022-10-24T00:48:44.724Z,0.97
2022-10-24T00:51:21.917Z,1.13
2022-10-24T00:53:52.648Z,2.23
2022-10-24T00:56:26.815Z,2.07
2022-10-24T00:58:58.827Z,1.50
2022-10-24T01:01:27.628Z,1.57
2022-10-24T01:03:55.390Z,1.47
2022-10-24T01:06:37.799Z,1.47
2022-10-24T01:09:16.086Z,2.07
2022-10-24T01:11:56.537Z,2.00
2022-10-24T01:14:33.925Z,1.33
2022-10-24T01:17:09.916Z,1.13
2022-10-24T01:20:05.887Z,2.63
2022-10-24T01:22:44.167Z,1.13
2022-10-24T01:25:16.149Z,0.70
2022-10-24T01:27:57.989Z,0.73
2022-10-24T01:30:30.884Z,0.90
2022-10-24T01:33:01.843Z,1.23
2022-10-24T01:35:37.787Z,1.57
2022-10-24T01:38:13.753Z,0.90
2022-10-24T01:40:48.587Z,1.10
2022-10-24T01:43:19.162Z,1.07
2022-10-24T01:45:52.177Z,1.50
2022-10-24T01:48:22.878Z,0.93
2022-10-24T01:50:54.585Z,2.63
2022-10-24T01:53:25.210Z,1.10
2022-10-24T01:55:55.298Z,1.63
2022-10-24T01:58:23.080Z,0.70
2022-10-24T02:00:55.894Z,0.73
2022-10-24T02:03:27.990Z,0.90
2022-10-24T02:06:00.600Z,1.03
2022-10-24T02:08:33.847Z,0.70
2022-10-24T02:11:05.928Z,1.50
2022-10-24T02:13:39.191Z,1.87
2022-10-24T02:16:09.811Z,2.33
2022-10-24T02:18:40.234Z,1.00
2022-10-24T02:21:17.685Z,2.23
2022-10-24T02:23:51.626Z,1.10
2022-10-24T02:26:25.263Z,1.60
2022-10-24T02:28:59.558Z,2.60
2022-10-24T02:31:34.755Z,0.97
2022-10-24T02:34:04.540Z,0.67
2022-10-24T02:36:35.385Z,0.80
2022-10-24T02:39:06.221Z,1.20
2022-10-24T02:41:37.252Z,0.53
2022-10-24T02:44:06.743Z,1.00
2022-10-24T02:46:37.410Z,0.67
2022-10-24T02:49:05.907Z,0.90
2022-10-24T02:51:38.341Z,2.77
2022-10-24T02:54:06.466Z,0.50
2022-10-24T02:56:36.225Z,0.60
2022-10-24T02:59:04.266Z,0.77
2022-10-24T03:01:32.361Z,2.10
2022-10-24T03:04:01.439Z,0.80
2022-10-24T03:06:29.471Z,0.70
2022-10-24T03:08:57.175Z,0.83
2022-10-24T03:11:25.675Z,3.50
2022-10-24T03:13:53.320Z,0.70
2022-10-24T03:16:21.122Z,2.17
2022-10-24T03:18:49.627Z,1.23
2022-10-24T03:21:19.349Z,1.57
2022-10-24T03:23:47.032Z,0.70
2022-10-24T03:26:15.466Z,1.90
2022-10-24T03:28:43.088Z,0.73
2022-10-24T03:31:11.129Z,0.80
2022-10-24T03:33:38.810Z,1.83
2022-10-24T03:36:07.923Z,0.90
2022-10-24T03:38:37.678Z,1.70
2022-10-24T03:41:05.742Z,1.80
2022-10-24T03:43:33.518Z,0.77
2022-10-24T03:46:01.175Z,1.90
2022-10-24T03:48:28.891Z,1.13
2022-10-24T03:50:56.700Z,1.23
2022-10-24T03:53:25.172Z,0.73
2022-10-24T03:55:54.892Z,0.50
2022-10-24T03:58:22.878Z,1.00
2022-10-24T04:00:50.978Z,1.03
2022-10-24T04:03:19.224Z,0.60
2022-10-24T04:05:46.868Z,0.60
2022-10-24T04:08:14.825Z,1.10
2022-10-24T04:10:42.470Z,0.67
2022-10-24T04:13:12.339Z,0.40
2022-10-24T04:15:40.168Z,1.00
2022-10-24T04:18:10.071Z,0.70
2022-10-24T04:20:37.759Z,2.93
2022-10-24T04:23:06.060Z,1.33
2022-10-24T04:25:33.719Z,0.57
2022-10-24T04:28:02.076Z,0.70
2022-10-24T04:30:31.072Z,0.47
2022-10-24T04:32:58.825Z,6.97
2022-10-24T04:35:26.881Z,6.33
2022-10-24T04:37:54.898Z,5.97
2022-10-24T04:40:22.577Z,1.80
2022-10-24T04:42:50.607Z,0.83
2022-10-24T04:45:18.538Z,2.97
2022-10-24T04:47:47.970Z,1.40
2022-10-24T04:50:15.765Z,1.50
2022-10-24T04:52:44.067Z,0.30
2022-10-24T04:55:11.703Z,2.50
2022-10-24T04:57:39.772Z,2.00
2022-10-24T05:00:08.832Z,0.73
2022-10-24T05:02:36.930Z,0.57
2022-10-24T05:05:06.578Z,0.30
2022-10-24T05:07:34.660Z,1.70
2022-10-24T05:10:02.333Z,3.33
2022-10-24T05:12:30.145Z,1.20
2022-10-24T05:14:57.931Z,0.67
2022-10-24T05:17:26.027Z,0.83
2022-10-24T05:19:54.001Z,1.57
2022-10-24T05:22:23.975Z,0.90
2022-10-24T05:24:52.098Z,1.37
2022-10-24T05:27:25.051Z,0.80
2022-10-24T05:29:53.108Z,0.97
2022-10-24T05:32:21.920Z,1.40
2022-10-24T05:34:49.972Z,0.90
2022-10-24T05:37:18.541Z,3.83
2022-10-24T05:39:47.612Z,5.83
2022-10-24T05:42:15.972Z,6.50
2022-10-24T05:44:43.635Z,7.40
2022-10-24T05:47:12.039Z,15.20
2022-10-24T05:49:39.771Z,15.10
2022-10-24T05:52:08.020Z,17.30
2022-10-24T05:54:48.448Z,12.87
2022-10-24T05:57:24.777Z,9.27
2022-10-24T05:59:52.394Z,7.77
2022-10-24T06:02:21.674Z,5.27
2022-10-24T06:04:50.661Z,6.63
2022-10-24T06:07:19.456Z,5.87
2022-10-24T06:09:47.147Z,5.53
2022-10-24T06:12:15.112Z,6.57
2022-10-24T06:14:45.073Z,5.30
2022-10-24T06:17:13.181Z,3.80
2022-10-24T06:19:41.283Z,2.10
2022-10-24T06:22:09.678Z,2.47
2022-10-24T06:24:39.164Z,1.67
2022-10-24T06:27:07.853Z,3.27
2022-10-24T06:29:35.811Z,3.07
2022-10-24T06:32:05.237Z,1.60
2022-10-24T06:34:33.521Z,2.50
2022-10-24T06:37:01.147Z,2.00
2022-10-24T06:39:29.717Z,2.87
2022-10-24T06:41:57.556Z,2.47
2022-10-24T06:44:27.541Z,4.50
2022-10-24T06:46:55.185Z,2.00
2022-10-24T06:49:24.538Z,3.37
2022-10-24T06:51:52.213Z,2.17
2022-10-24T06:54:19.854Z,2.00
2022-10-24T06:56:47.532Z,3.30
2022-10-24T06:59:18.186Z,4.17
2022-10-24T07:01:45.963Z,2.07
2022-10-24T07:04:14.655Z,2.03
2022-10-24T07:06:43.738Z,2.10
2022-10-24T07:09:15.252Z,2.20
2022-10-24T07:11:43.962Z,2.87
2022-10-24T07:14:12.070Z,3.33
2022-10-24T07:16:40.455Z,2.97
2022-10-24T07:19:08.787Z,1.93
2022-10-24T07:21:36.515Z,1.60
2022-10-24T07:24:06.842Z,2.00
2022-10-24T07:26:34.501Z,1.17
2022-10-24T07:31:37.184Z,0.80
2022-10-24T07:34:07.965Z,1.40
2022-10-24T07:36:40.070Z,3.53
2022-10-24T07:39:13.558Z,1.20
2022-10-24T07:41:42.145Z,2.17
2022-10-24T07:44:11.217Z,3.20
2022-10-24T07:46:39.346Z,1.33
2022-10-24T07:49:08.941Z,1.10
2022-10-24T07:51:36.567Z,1.60
2022-10-24T07:54:04.358Z,1.23
2022-10-24T07:56:33.510Z,0.60
2022-10-24T07:59:09.051Z,1.80
2022-10-24T08:01:37.399Z,1.67
2022-10-24T08:04:05.538Z,1.93
2022-10-24T08:06:33.835Z,2.60
2022-10-24T08:09:01.975Z,2.03
2022-10-24T08:11:31.357Z,2.37
2022-10-24T08:14:02.579Z,3.00
2022-10-24T08:16:30.366Z,2.27
2022-10-24T08:18:59.387Z,1.47
2022-10-24T08:21:27.307Z,2.23
2022-10-24T08:23:56.454Z,1.57
2022-10-24T08:26:25.822Z,1.60
2022-10-24T08:28:55.275Z,2.13
2022-10-24T08:31:26.180Z,3.80
2022-10-24T08:33:56.211Z,1.33
2022-10-24T08:36:26.810Z,1.73
2022-10-24T08:38:55.275Z,1.63
2022-10-24T08:41:32.318Z,2.03
2022-10-24T08:44:02.932Z,2.40
2022-10-24T08:46:48.866Z,2.67
2022-10-24T08:49:24.934Z,1.17
2022-10-24T08:51:56.345Z,2.03
2022-10-24T08:54:29.857Z,1.73
2022-10-24T08:56:59.849Z,1.33
2022-10-24T08:59:31.369Z,1.30
2022-10-24T09:02:04.563Z,1.47
2022-10-24T09:04:40.536Z,1.67
2022-10-24T09:07:15.049Z,1.20
2022-10-24T09:09:47.949Z,2.00
2022-10-24T09:12:18.025Z,3.37
2022-10-24T09:14:48.652Z,2.03
2022-10-24T09:17:21.973Z,1.90
2022-10-24T09:19:53.797Z,1.20
2022-10-24T09:22:22.750Z,1.53
2022-10-24T09:24:54.854Z,2.83
2022-10-24T09:27:26.609Z,1.53
2022-10-24T09:29:54.858Z,0.80
2022-10-24T09:32:27.107Z,1.53
2022-10-24T09:34:56.058Z,1.13
2022-10-24T09:37:42.533Z,1.80
2022-10-24T09:40:19.588Z,3.00
2022-10-24T09:43:07.992Z,1.23
2022-10-24T09:45:41.343Z,0.90
2022-10-24T09:48:26.090Z,1.67
2022-10-24T09:50:58.053Z,1.63
2022-10-24T09:53:28.122Z,2.53
2022-10-24T09:55:59.542Z,1.00
2022-10-24T09:58:32.659Z,1.10
2022-10-24T10:01:05.189Z,1.80
2022-10-24T10:03:35.315Z,1.97
2022-10-24T10:06:15.611Z,2.53
2022-10-24T10:08:51.102Z,1.20
2022-10-24T10:11:26.586Z,1.63
2022-10-24T10:13:55.460Z,1.90
2022-10-24T10:16:26.962Z,1.10
2022-10-24T10:19:05.242Z,2.33
2022-10-24T10:21:55.376Z,2.17
2022-10-24T10:24:36.942Z,1.30
2022-10-24T10:27:26.115Z,1.40
2022-10-24T10:30:09.983Z,1.57
2022-10-24T10:32:45.734Z,2.13
2022-10-24T10:35:21.261Z,1.30
2022-10-24T10:37:52.142Z,0.90
2022-10-24T10:40:29.732Z,1.87
2022-10-24T10:43:11.556Z,1.77
2022-10-24T10:45:46.546Z,2.07
2022-10-24T10:48:30.237Z,0.87
2022-10-24T10:51:08.173Z,1.03
2022-10-24T10:53:40.082Z,0.80
2022-10-24T10:56:22.971Z,1.10
2022-10-24T10:59:05.365Z,0.93
2022-10-24T11:01:45.208Z,1.20
2022-10-24T11:04:22.979Z,2.87
2022-10-24T11:09:38.071Z,1.10
2022-10-24T11:12:13.271Z,1.23
2022-10-24T11:14:46.096Z,2.17
2022-10-24T11:17:18.323Z,1.50
2022-10-24T11:19:55.738Z,2.47
2022-10-24T11:22:30.161Z,1.87
2022-10-24T11:25:03.612Z,2.37
2022-10-24T11:27:39.686Z,1.43
2022-10-24T11:30:15.150Z,2.33
2022-10-24T11:32:49.174Z,1.83
2022-10-24T11:35:25.520Z,1.07
2022-10-24T11:37:59.427Z,1.23
2022-10-24T11:43:12.108Z,0.80
2022-10-24T11:45:46.706Z,1.23
2022-10-24T11:48:20.334Z,2.00
2022-10-24T11:50:52.429Z,3.20
2022-10-24T11:53:48.053Z,0.77
2022-10-24T11:56:23.641Z,1.10
2022-10-24T11:58:58.426Z,1.23
2022-10-24T12:01:53.205Z,0.90
2022-10-24T12:04:45.975Z,0.60
2022-10-24T12:07:51.754Z,0.90
2022-10-24T12:10:35.437Z,1.00
2022-10-24T12:13:19.756Z,0.70
2022-10-24T12:15:55.580Z,0.53
2022-10-24T12:18:30.563Z,3.23
2022-10-24T12:21:02.841Z,1.33
2022-10-24T12:23:31.846Z,0.70
2022-10-24T12:26:06.481Z,0.77
2022-10-24T12:28:35.341Z,1.27
2022-10-24T12:31:13.000Z,1.50
2022-10-24T12:33:41.168Z,0.80
2022-10-24T12:36:09.462Z,1.17
2022-10-24T12:39:09.211Z,1.23
2022-10-24T12:41:41.297Z,1.03
2022-10-24T12:44:38.891Z,1.00
2022-10-24T12:47:35.121Z,0.60
2022-10-24T12:50:40.372Z,1.00
2022-10-24T12:53:20.455Z,0.53
2022-10-24T12:56:11.905Z,0.57
2022-10-24T12:58:43.048Z,1.63
2022-10-24T13:01:24.105Z,0.60
2022-10-24T13:04:40.376Z,0.70
2022-10-24T13:07:22.850Z,0.50
2022-10-24T13:10:13.987Z,0.50
2022-10-24T13:12:57.630Z,0.73
2022-10-24T13:15:46.025Z,0.50
2022-10-24T13:18:25.208Z,1.00
2022-10-24T13:21:15.250Z,0.43
2022-10-24T13:23:45.235Z,0.73
2022-10-24T13:26:37.312Z,0.60
2022-10-24T13:29:06.031Z,0.40
2022-10-24T13:31:49.828Z,0.60
2022-10-24T13:34:26.935Z,0.60
2022-10-24T13:37:02.409Z,1.03
2022-10-24T13:39:37.534Z,0.80
2022-10-24T13:42:23.664Z,0.47
2022-10-24T13:44:55.221Z,1.17
2022-10-24T13:47:26.873Z,0.40
2022-10-24T13:49:58.759Z,0.33
2022-10-24T13:52:33.354Z,0.37
2022-10-24T13:55:14.960Z,0.30
2022-10-24T13:57:54.980Z,0.40
2022-10-24T14:00:25.842Z,0.40
2022-10-24T14:02:55.636Z,0.50
2022-10-24T14:05:35.681Z,0.50
2022-10-24T14:08:05.098Z,0.70
2022-10-24T14:10:33.378Z,0.50
2022-10-24T14:13:03.392Z,1.33
2022-10-24T14:15:33.788Z,0.20
2022-10-24T14:18:04.105Z,0.93
2022-10-24T14:20:34.215Z,0.77
2022-10-24T14:23:02.838Z,0.57
2022-10-24T14:25:35.259Z,0.97
2022-10-24T14:28:12.498Z,0.40
2022-10-24T14:30:40.223Z,1.33
2022-10-24T14:33:22.495Z,0.37
2022-10-24T14:35:53.583Z,0.37
2022-10-24T14:38:25.591Z,0.20
2022-10-24T14:41:07.928Z,1.27
2022-10-24T14:43:42.449Z,0.73
2022-10-24T14:46:27.904Z,0.47
2022-10-24T14:48:55.812Z,0.73
2022-10-24T14:51:28.263Z,0.57
2022-10-24T14:53:57.427Z,1.40
2022-10-24T14:56:28.230Z,0.50
2022-10-24T14:58:59.658Z,0.33
2022-10-24T15:01:27.494Z,0.20
2022-10-24T15:03:57.273Z,0.40
2022-10-24T15:06:27.355Z,0.27
2022-10-24T15:09:04.772Z,0.27
2022-10-24T15:11:38.514Z,0.40
2022-10-24T15:14:34.518Z,0.20
2022-10-24T15:17:19.971Z,1.03
2022-10-24T15:19:49.765Z,0.40
2022-10-24T15:22:27.679Z,0.37
2022-10-24T15:24:57.693Z,0.50
2022-10-24T15:27:28.263Z,0.40
2022-10-24T15:29:57.749Z,0.33
2022-10-24T15:32:26.530Z,0.50
2022-10-24T15:34:55.434Z,0.73
2022-10-24T15:37:25.452Z,0.90
2022-10-24T15:39:54.225Z,0.50
2022-10-24T15:42:22.675Z,0.20
2022-10-24T15:44:50.921Z,0.40
2022-10-24T15:47:23.707Z,0.43
2022-10-24T15:49:52.679Z,4.77
2022-10-24T15:52:20.405Z,1.37
2022-10-24T15:54:48.062Z,0.80
2022-10-24T15:57:20.511Z,0.13
2022-10-24T15:59:48.438Z,0.40
2022-10-24T16:02:19.644Z,0.40
2022-10-24T16:04:49.317Z,0.30
2022-10-24T16:07:17.132Z,0.37
2022-10-24T16:09:45.261Z,0.27
2022-10-24T16:12:13.555Z,0.23
2022-10-24T16:14:41.867Z,0.50
2022-10-24T16:17:09.485Z,0.40
2022-10-24T16:19:37.468Z,0.37
2022-10-24T16:22:07.558Z,0.30
2022-10-24T16:24:35.550Z,0.30
2022-10-24T16:27:03.184Z,0.73
2022-10-24T16:29:30.845Z,0.40
2022-10-24T16:31:58.496Z,0.10
2022-10-24T16:34:26.129Z,1.17
2022-10-24T16:36:54.862Z,1.07
2022-10-24T16:39:24.439Z,0.40
2022-10-24T16:41:55.437Z,0.50
2022-10-24T16:44:23.130Z,0.50
2022-10-24T16:46:53.923Z,0.20
2022-10-24T16:49:21.584Z,1.07
2022-10-24T16:51:49.774Z,0.20
2022-10-24T16:54:19.048Z,0.97
2022-10-24T16:56:53.364Z,0.30
2022-10-24T16:59:21.675Z,0.57
2022-10-24T17:01:50.050Z,0.33
2022-10-24T17:04:17.898Z,0.80
2022-10-24T17:06:45.914Z,0.77
2022-10-24T17:09:13.710Z,0.90
2022-10-24T17:11:46.001Z,0.40
2022-10-24T17:14:15.592Z,0.40
2022-10-24T17:16:44.933Z,0.30
2022-10-24T17:19:16.239Z,0.40
2022-10-24T17:21:46.913Z,0.60
2022-10-24T17:24:16.826Z,0.93
2022-10-24T17:26:44.832Z,1.07
2022-10-24T17:29:16.435Z,1.27
2022-10-24T17:31:44.315Z,0.23
2022-10-24T17:34:12.181Z,0.40
2022-10-24T17:36:42.739Z,0.63
2022-10-24T17:39:15.400Z,0.47
2022-10-24T17:41:45.153Z,0.30
2022-10-24T17:44:19.157Z,0.50
2022-10-24T17:46:47.863Z,0.60
2022-10-24T17:49:20.862Z,0.40
2022-10-24T17:51:50.161Z,0.50
2022-10-24T17:54:18.608Z,0.67
2022-10-24T17:56:46.399Z,0.30
2022-10-24T17:59:14.783Z,0.53
2022-10-24T18:01:44.544Z,0.50
2022-10-24T18:04:12.827Z,1.30
2022-10-24T18:06:43.380Z,0.80
2022-10-24T18:09:11.745Z,0.53
2022-10-24T18:11:39.971Z,0.23
2022-10-24T18:14:07.978Z,1.20
2022-10-24T18:16:37.009Z,0.30
2022-10-24T18:19:07.331Z,0.60
2022-10-24T18:21:35.430Z,0.83
2022-10-24T18:24:09.204Z,0.67
2022-10-24T18:26:37.865Z,0.63
2022-10-24T18:29:05.622Z,0.60
2022-10-24T18:31:35.208Z,1.03
2022-10-24T18:34:06.267Z,0.90
2022-10-24T18:36:38.550Z,1.33
2022-10-24T18:39:07.100Z,1.90
2022-10-24T18:41:43.278Z,1.07
2022-10-24T18:44:23.766Z,1.03
2022-10-24T18:46:52.931Z,1.47
2022-10-24T18:49:21.426Z,2.90
2022-10-24T18:51:58.562Z,5.07
2022-10-24T18:54:28.388Z,3.20
2022-10-24T18:56:57.371Z,0.87
2022-10-24T18:59:26.003Z,0.50
2022-10-24T19:02:09.446Z,1.17
2022-10-24T19:04:42.297Z,0.83
2022-10-24T19:07:11.884Z,0.20
2022-10-24T19:09:39.741Z,0.33
2022-10-24T19:12:08.142Z,0.30
2022-10-24T19:14:36.186Z,0.63
2022-10-24T19:17:04.332Z,0.30
2022-10-24T19:19:35.710Z,0.40
2022-10-24T19:22:03.405Z,0.33
2022-10-24T19:24:32.584Z,1.57
2022-10-24T19:27:00.266Z,0.50
2022-10-24T19:29:27.916Z,0.30
2022-10-24T19:31:55.579Z,0.50
2022-10-24T19:34:23.242Z,0.70
2022-10-24T19:36:50.882Z,0.97
2022-10-24T19:39:19.018Z,0.37
2022-10-24T19:41:47.999Z,0.20
2022-10-24T19:44:16.034Z,0.80
2022-10-24T19:46:43.714Z,0.30
2022-10-24T19:49:11.549Z,0.60
2022-10-24T19:51:39.462Z,0.50
2022-10-24T19:54:07.504Z,0.60
2022-10-24T19:56:35.846Z,0.43
2022-10-24T19:59:04.821Z,0.20
2022-10-24T20:01:33.230Z,0.20
2022-10-24T20:04:01.911Z,0.50
2022-10-24T20:06:29.592Z,0.50
2022-10-24T20:08:57.290Z,0.50
2022-10-24T20:11:25.398Z,0.47
2022-10-24T20:13:53.106Z,0.20
2022-10-24T20:16:22.314Z,0.20
2022-10-24T20:18:50.039Z,0.50
2022-10-24T20:21:19.725Z,0.43
2022-10-24T20:23:48.948Z,0.80
2022-10-24T20:26:18.697Z,0.33
2022-10-24T20:28:48.343Z,0.97
2022-10-24T20:31:23.027Z,0.40
2022-10-24T20:33:50.906Z,0.63
2022-10-24T20:36:20.673Z,1.83
2022-10-24T20:38:48.496Z,0.60
2022-10-24T20:41:16.552Z,0.63
2022-10-24T20:43:44.228Z,0.57
2022-10-24T20:46:12.225Z,0.73
2022-10-24T20:48:41.237Z,0.53
2022-10-24T20:51:10.602Z,1.10
2022-10-24T20:53:38.777Z,1.07
2022-10-24T20:56:08.506Z,1.23
2022-10-24T20:58:38.697Z,0.50
2022-10-24T21:01:07.866Z,0.90
2022-10-24T21:03:36.372Z,0.90
2022-10-24T21:06:07.420Z,1.10
2022-10-24T21:08:35.055Z,0.73
2022-10-24T21:11:06.650Z,0.77
2022-10-24T21:13:34.345Z,0.90
2022-10-24T21:16:02.752Z,0.80
2022-10-24T21:18:30.383Z,0.77
2022-10-24T21:20:58.569Z,2.67
2022-10-24T21:23:27.551Z,0.40
2022-10-24T21:26:02.264Z,0.50
2022-10-24T21:28:30.236Z,0.87
2022-10-24T21:30:57.891Z,1.00
2022-10-24T21:33:25.561Z,0.30
2022-10-24T21:35:53.221Z,0.23
2022-10-24T21:38:20.826Z,0.20
2022-10-24T21:40:49.902Z,0.23
2022-10-24T21:43:17.501Z,0.37
2022-10-24T21:45:45.237Z,0.37
2022-10-24T21:48:15.711Z,0.30
2022-10-24T21:53:12.378Z,0.47
2022-10-24T21:55:39.986Z,1.10
2022-10-24T21:58:09.431Z,0.73
2022-10-24T22:00:40.233Z,0.33
2022-10-24T22:03:08.106Z,0.50
2022-10-24T22:05:35.766Z,0.80
2022-10-24T22:08:03.441Z,0.50
2022-10-24T22:10:31.076Z,0.90
2022-10-24T22:12:59.214Z,0.20
2022-10-24T22:15:28.225Z,0.30
2022-10-24T22:20:44.934Z,0.40
2022-10-24T22:23:13.504Z,0.30
2022-10-24T22:25:41.427Z,0.57
2022-10-24T22:28:09.831Z,0.40
2022-10-24T22:30:39.414Z,0.57
2022-10-24T22:33:08.818Z,0.43
2022-10-24T22:35:37.285Z,0.60
2022-10-24T22:38:05.742Z,0.60
2022-10-24T22:40:34.051Z,0.30
2022-10-24T22:43:03.090Z,0.30
2022-10-24T22:45:31.400Z,0.20
2022-10-24T22:48:11.590Z,0.57
2022-10-24T22:50:49.555Z,0.30
2022-10-24T22:53:20.323Z,0.60
2022-10-24T22:56:03.295Z,0.63
2022-10-24T22:58:31.679Z,0.40
2022-10-24T23:01:04.623Z,1.00
2022-10-24T23:03:44.189Z,0.63
2022-10-24T23:06:17.967Z,1.33
2022-10-24T23:08:47.399Z,1.50
2022-10-24T23:11:15.747Z,0.73
2022-10-24T23:13:44.245Z,1.07
2022-10-24T23:16:22.474Z,0.73
2022-10-24T23:18:52.515Z,0.87
2022-10-24T23:21:27.141Z,0.70
2022-10-24T23:23:55.413Z,0.93
2022-10-24T23:26:33.528Z,0.83
2022-10-24T23:29:09.767Z,0.40
2022-10-24T23:31:38.274Z,1.03
2022-10-24T23:34:09.648Z,0.90
2022-10-24T23:36:43.767Z,0.83
2022-10-24T23:39:13.027Z,0.63
2022-10-24T23:41:41.713Z,1.37
2022-10-24T23:44:11.631Z,0.40
2022-10-24T23:46:44.428Z,1.00
2022-10-24T23:49:23.878Z,0.50
2022-10-24T23:52:01.947Z,0.43
2022-10-24T23:54:33.402Z,0.90
2022-10-24T23:57:01.680Z,0.60
2022-10-24T23:59:33.735Z,0.60
